This is the latest recevied weather packets stored in our database for station/object SP9UVG-13. If no packets are shown the sender has not sent any weather packets the latest 10 day(s).
| Time | Temp. | Humidity | Pressure | Rain* | Wind** | Luminosity | Snow |
|---|---|---|---|---|---|---|---|
| 1787817460 | 29.44° C | 37% | 1007.2 hPa | 0 mm | - | - | - |
| 1787816919 | 30° C | 36% | 1007 hPa | 0 mm | - | - | - |
| 1787815838 | 31.11° C | 35% | 1007 hPa | 0 mm | - | - | - |
| 1787815298 | 31.67° C | 34% | 1006.9 hPa | 0 mm | - | - | - |
| 1787814757 | 33.33° C | 32% | 1006.9 hPa | 0 mm | - | - | - |
| 1787814216 | 35.56° C | 33% | 1006.8 hPa | 0 mm | - | - | - |
| 1787813676 | 33.89° C | 37% | 1006.7 hPa | 0 mm | - | - | - |
| 1787813135 | 33.89° C | 35% | 1006.8 hPa | 0 mm | - | - | - |
| 1787812595 | 32.22° C | 40% | 1006.7 hPa | 0 mm | - | - | - |
| 1787812054 | 31.11° C | 44% | 1006.8 hPa | 0 mm | - | - | - |
| 1787811514 | 28.33° C | 53% | 1006.7 hPa | 0 mm | - | - | - |
| 1787810973 | 21.67° C | 72% | 1006.8 hPa | 0 mm | - | - | - |
| 1787810433 | 15.56° C | 82% | 1006.7 hPa | 0 mm | - | - | - |
| 1787809892 | 13.89° C | 84% | 1006.7 hPa | 0 mm | - | - | - |
| 1787809352 | 12.78° C | 86% | 1006.6 hPa | 0 mm | - | - | - |
| 1787808811 | 12.78° C | 87% | 1006.7 hPa | 0 mm | - | - | - |
| 1787808271 | 12.22° C | 87% | 1006.6 hPa | 0 mm | - | - | - |
| 1787807730 | 11.67° C | 87% | 1006.6 hPa | 0 mm | - | - | - |
| 1787807190 | 11.11° C | 88% | 1006.6 hPa | 0 mm | - | - | - |
| 1787806649 | 10.56° C | 87% | 1006.5 hPa | 0 mm | - | - | - |
| 1787806109 | 10.56° C | 87% | 1006.6 hPa | 0 mm | - | - | - |
| 1787805568 | 10.56° C | 87% | 1006.6 hPa | 0 mm | - | - | - |
| 1787805028 | 10.56° C | 87% | 1006.4 hPa | 0 mm | - | - | - |
| 1787804487 | 10° C | 86% | 1006.5 hPa | 0 mm | - | - | - |
| 1787803947 | 10° C | 86% | 1006.5 hPa | 0 mm | - | - | - |
* Rain latest hour (hover to see other rain measurements)
** Current wind speed in m/s (hover to see current wind gust speed)